Terminal Aerodrome Forecast
Issued by NWS

Home | Current Version | Previous Version | Graphics & Text | Print | Product List | Glossary On
Versions: 1 2 3 4 5 6 7 8 9 10 11 12 13 14 15
000
FTUS45 KGGW 302300
TAFSDY
TAF
KSDY 302327Z 0100/0124 VRB06KT 3SM -RA BR FEW006 SCT010 BKN020
     FM010300 30017KT P6SM -RA OVC015
     FM011200 29017KT P6SM -SHRA OVC025
      AMD LTD TO CLD VIS AND WIND=

USA.gov is the U.S. government's official web portal to all federal, state and local government web resources and services.